createdAt,value
2018-05-24T00:01:37.257Z,34.70
2018-05-24T00:04:03.741Z,29.10
2018-05-24T00:06:30.171Z,27.92
2018-05-24T00:08:56.597Z,19.77
2018-05-24T00:11:22.980Z,17.75
2018-05-24T00:13:50.148Z,14.65
2018-05-24T00:16:17.321Z,12.80
2018-05-24T00:18:44.455Z,12.60
2018-05-24T00:21:10.851Z,11.63
2018-05-24T00:23:37.270Z,11.10
2018-05-24T00:26:03.693Z,10.70
2018-05-24T00:28:30.131Z,10.40
2018-05-24T00:30:57.318Z,10.10
2018-05-24T00:33:23.752Z,9.43
2018-05-24T00:35:50.197Z,9.30
2018-05-24T00:38:19.475Z,9.80
2018-05-24T00:40:45.922Z,9.85
2018-05-24T00:43:12.387Z,9.43
2018-05-24T00:45:38.816Z,8.63
2018-05-24T00:48:05.238Z,8.30
2018-05-24T00:50:32.414Z,8.57
2018-05-24T00:52:58.922Z,8.90
2018-05-24T00:55:37.704Z,9.20
2018-05-24T00:58:04.911Z,8.52
2018-05-24T01:00:31.328Z,8.90
2018-05-24T01:02:57.773Z,8.40
2018-05-24T01:05:24.919Z,8.20
2018-05-24T01:07:51.346Z,8.80
2018-05-24T01:10:17.907Z,9.15
2018-05-24T01:12:44.358Z,8.68
2018-05-24T01:15:10.781Z,9.10
2018-05-24T01:17:37.951Z,9.07
2018-05-24T01:20:04.440Z,9.38
2018-05-24T01:22:30.834Z,9.50
2018-05-24T01:24:57.259Z,9.00
2018-05-24T01:27:23.692Z,9.32
2018-05-24T01:29:50.944Z,9.27
2018-05-24T01:32:19.233Z,9.25
2018-05-24T01:34:46.410Z,8.23
2018-05-24T01:37:25.965Z,8.10
2018-05-24T01:39:53.244Z,8.40
2018-05-24T01:42:20.417Z,8.90
2018-05-24T01:44:47.638Z,8.00
2018-05-24T01:47:14.092Z,9.23
2018-05-24T01:49:40.533Z,8.93
2018-05-24T01:52:06.957Z,8.10
2018-05-24T01:54:33.364Z,8.38
2018-05-24T01:56:59.799Z,7.70
2018-05-24T01:59:26.333Z,7.87
2018-05-24T02:01:52.738Z,8.23
2018-05-24T02:04:19.838Z,7.70
2018-05-24T02:06:46.286Z,8.25
2018-05-24T02:09:12.751Z,8.30
2018-05-24T02:11:39.170Z,7.30
2018-05-24T02:14:05.617Z,7.97
2018-05-24T02:16:32.084Z,8.27
2018-05-24T02:18:58.527Z,8.60
2018-05-24T02:21:25.050Z,8.75
2018-05-24T02:23:52.290Z,9.20
2018-05-24T02:26:18.700Z,9.82
2018-05-24T02:28:45.162Z,10.70
2018-05-24T02:31:11.668Z,10.30
2018-05-24T02:33:38.151Z,10.90
2018-05-24T02:36:04.787Z,10.90
2018-05-24T02:38:31.160Z,10.80
2018-05-24T02:40:58.322Z,10.38
2018-05-24T02:43:25.480Z,10.60
2018-05-24T02:45:51.900Z,10.40
2018-05-24T02:48:18.307Z,10.23
2018-05-24T02:50:45.494Z,10.88
2018-05-24T02:53:12.615Z,10.13
2018-05-24T02:55:39.035Z,10.52
2018-05-24T02:58:05.446Z,11.12
2018-05-24T03:00:31.890Z,10.95
2018-05-24T03:02:58.314Z,11.40
2018-05-24T03:05:24.742Z,11.80
2018-05-24T03:07:52.020Z,12.07
2018-05-24T03:10:18.451Z,12.70
2018-05-24T03:12:45.626Z,12.23
2018-05-24T03:15:12.036Z,12.10
2018-05-24T03:17:39.201Z,12.65
2018-05-24T03:20:05.703Z,12.93
2018-05-24T03:22:32.166Z,12.80
2018-05-24T03:25:00.035Z,13.70
2018-05-24T03:27:26.634Z,14.82
2018-05-24T03:29:53.776Z,14.52
2018-05-24T03:32:20.201Z,15.90
2018-05-24T03:34:46.623Z,14.75
2018-05-24T03:37:13.055Z,15.88
2018-05-24T03:39:40.209Z,16.00
2018-05-24T03:42:06.619Z,17.17
2018-05-24T03:44:33.052Z,16.67
2018-05-24T03:47:00.203Z,17.73
2018-05-24T03:49:26.646Z,16.60
2018-05-24T03:51:53.096Z,17.83
2018-05-24T03:54:19.598Z,17.23
2018-05-24T03:56:46.769Z,18.25
2018-05-24T04:02:35.627Z,18.43
2018-05-24T04:05:02.897Z,18.00
2018-05-24T04:07:30.041Z,19.10
2018-05-24T04:09:56.502Z,18.08
2018-05-24T04:12:22.902Z,18.70
2018-05-24T04:14:49.324Z,19.62
2018-05-24T04:17:15.751Z,20.05
2018-05-24T04:19:42.194Z,20.10
2018-05-24T04:22:08.623Z,20.25
2018-05-24T04:24:35.052Z,20.07
2018-05-24T04:27:02.333Z,21.95
2018-05-24T04:29:28.704Z,22.45
2018-05-24T04:31:55.250Z,22.90
2018-05-24T04:34:22.529Z,23.02
2018-05-24T04:36:49.084Z,24.27
2018-05-24T04:39:15.528Z,21.55
2018-05-24T04:41:42.739Z,22.98
2018-05-24T04:44:09.579Z,21.12
2018-05-24T04:46:36.835Z,22.40
2018-05-24T04:49:04.014Z,21.10
2018-05-24T04:51:31.203Z,21.77
2018-05-24T04:53:57.636Z,21.30
2018-05-24T04:56:24.078Z,20.62
2018-05-24T04:58:50.504Z,19.70
2018-05-24T05:01:17.138Z,21.30
2018-05-24T05:03:44.911Z,25.70
2018-05-24T05:06:12.083Z,25.42
2018-05-24T05:08:39.304Z,26.80
2018-05-24T05:11:05.878Z,27.62
2018-05-24T05:13:32.342Z,28.65
2018-05-24T05:15:58.792Z,27.80
2018-05-24T05:18:25.198Z,28.92
2018-05-24T05:20:51.741Z,28.40
2018-05-24T05:23:18.347Z,27.10
2018-05-24T05:25:45.487Z,28.60
2018-05-24T05:28:11.913Z,25.40
2018-05-24T05:30:39.148Z,21.60
2018-05-24T05:33:05.561Z,21.40
2018-05-24T05:35:32.757Z,21.60
2018-05-24T05:37:59.826Z,22.42
2018-05-24T05:40:26.268Z,22.23
2018-05-24T05:42:52.686Z,22.08
2018-05-24T05:45:19.101Z,22.98
2018-05-24T05:47:45.508Z,22.97
2018-05-24T05:50:12.683Z,26.17
2018-05-24T05:52:39.145Z,23.87
2018-05-24T05:55:06.328Z,24.80
2018-05-24T05:57:33.454Z,25.48
2018-05-24T05:59:59.922Z,27.20
2018-05-24T06:02:26.340Z,25.30
2018-05-24T06:04:52.773Z,25.25
2018-05-24T06:07:19.186Z,25.88
2018-05-24T06:09:45.800Z,24.75
2018-05-24T06:12:12.907Z,25.77
2018-05-24T06:14:39.360Z,27.40
2018-05-24T06:17:05.808Z,26.33
2018-05-24T06:19:33.011Z,26.58
2018-05-24T06:21:59.452Z,26.57
2018-05-24T06:24:25.929Z,24.87
2018-05-24T06:26:52.375Z,25.10
2018-05-24T06:29:18.779Z,25.67
2018-05-24T06:31:45.230Z,25.30
2018-05-24T06:34:11.776Z,26.50
2018-05-24T06:36:38.212Z,26.05
2018-05-24T06:39:05.526Z,25.33
2018-05-24T06:41:31.998Z,25.80
2018-05-24T06:43:58.420Z,25.77
2018-05-24T06:46:25.636Z,24.67
2018-05-24T06:48:52.093Z,26.00
2018-05-24T06:51:18.536Z,26.40
2018-05-24T06:53:45.056Z,26.40
2018-05-24T06:56:11.517Z,25.60
2018-05-24T06:58:38.796Z,27.62
2018-05-24T07:01:05.255Z,26.95
2018-05-24T07:03:31.736Z,32.58
2018-05-24T07:05:58.316Z,29.02
2018-05-24T07:08:24.849Z,27.95
2018-05-24T07:10:51.315Z,27.60
2018-05-24T07:13:17.803Z,26.77
2018-05-24T07:15:44.240Z,25.48
2018-05-24T07:18:10.709Z,25.23
2018-05-24T07:20:37.163Z,27.08
2018-05-24T07:23:04.345Z,27.23
2018-05-24T07:25:30.777Z,26.35
2018-05-24T07:27:57.293Z,27.15
2018-05-24T07:30:24.569Z,26.53
2018-05-24T07:32:51.006Z,26.92
2018-05-24T07:35:18.400Z,24.83
2018-05-24T07:37:45.553Z,26.27
2018-05-24T07:40:12.848Z,26.12
2018-05-24T07:42:40.024Z,27.10
2018-05-24T07:45:06.463Z,27.55
2018-05-24T07:47:32.847Z,27.80
2018-05-24T07:49:59.388Z,29.77
2018-05-24T07:52:26.595Z,30.43
2018-05-24T07:54:53.206Z,29.35
2018-05-24T07:57:19.680Z,28.60
2018-05-24T07:59:46.104Z,30.10
2018-05-24T08:02:13.293Z,28.67
2018-05-24T08:04:40.455Z,29.00
2018-05-24T08:07:06.876Z,27.90
2018-05-24T08:09:34.107Z,27.10
2018-05-24T08:12:01.289Z,27.27
2018-05-24T08:14:27.839Z,26.65
2018-05-24T08:16:55.009Z,26.20
2018-05-24T08:19:22.182Z,25.73
2018-05-24T08:21:49.355Z,24.20
2018-05-24T08:24:15.811Z,24.60
2018-05-24T08:26:42.955Z,24.90
2018-05-24T08:29:09.443Z,23.27
2018-05-24T08:31:36.661Z,23.12
2018-05-24T08:34:03.818Z,23.12
2018-05-24T08:36:30.275Z,22.50
2018-05-24T08:38:56.713Z,22.60
2018-05-24T08:41:23.173Z,22.40
2018-05-24T08:43:49.637Z,21.23
2018-05-24T08:46:16.101Z,22.00
2018-05-24T08:48:42.626Z,21.30
2018-05-24T08:51:09.900Z,21.67
2018-05-24T08:53:36.306Z,22.10
2018-05-24T08:56:02.749Z,21.10
2018-05-24T08:58:29.269Z,22.02
2018-05-24T09:00:57.083Z,22.55
2018-05-24T09:03:23.512Z,22.08
2018-05-24T09:05:50.716Z,21.67
2018-05-24T09:08:17.200Z,21.67
2018-05-24T09:10:43.596Z,22.62
2018-05-24T09:13:10.766Z,21.58
2018-05-24T09:15:38.045Z,22.55
2018-05-24T09:18:04.525Z,22.23
2018-05-24T09:20:31.059Z,21.45
2018-05-24T09:22:57.617Z,21.00
2018-05-24T09:25:24.085Z,21.92
2018-05-24T09:27:50.530Z,21.50
2018-05-24T09:31:19.366Z,20.92
2018-05-24T09:33:46.543Z,20.73
2018-05-24T09:36:13.735Z,20.70
2018-05-24T09:38:40.164Z,19.92
2018-05-24T09:41:07.179Z,19.10
2018-05-24T09:43:33.614Z,19.30
2018-05-24T09:46:00.636Z,19.73
2018-05-24T09:48:27.227Z,19.40
2018-05-24T09:50:54.376Z,19.12
2018-05-24T09:53:21.569Z,20.00
2018-05-24T09:55:48.759Z,20.75
2018-05-24T09:58:15.300Z,19.48
2018-05-24T10:00:42.635Z,20.00
2018-05-24T10:03:09.083Z,19.65
2018-05-24T10:05:35.513Z,20.60
2018-05-24T10:08:44.066Z,21.10
2018-05-24T10:11:11.228Z,21.00
2018-05-24T10:13:37.918Z,20.40
2018-05-24T10:16:04.370Z,19.70
2018-05-24T10:18:30.875Z,20.00
2018-05-24T10:20:57.335Z,20.17
2018-05-24T10:23:23.731Z,19.62
2018-05-24T10:25:50.183Z,20.92
2018-05-24T10:28:17.370Z,19.52
2018-05-24T10:30:44.603Z,20.48
2018-05-24T10:33:11.042Z,20.17
2018-05-24T10:35:37.496Z,20.90
2018-05-24T10:38:04.432Z,20.52
2018-05-24T10:40:30.981Z,19.65
2018-05-24T10:42:58.170Z,18.47
2018-05-24T10:45:24.633Z,19.87
2018-05-24T10:47:51.055Z,19.33
2018-05-24T10:50:18.263Z,18.95
2018-05-24T10:52:44.704Z,19.50
2018-05-24T10:55:11.208Z,19.70
2018-05-24T10:57:37.716Z,19.08
2018-05-24T11:00:04.576Z,19.98
2018-05-24T11:02:31.016Z,19.48
2018-05-24T11:04:57.444Z,19.48
2018-05-24T11:07:23.881Z,18.58
2018-05-24T11:09:51.069Z,19.10
2018-05-24T11:12:18.652Z,17.60
2018-05-24T11:14:45.708Z,18.30
2018-05-24T11:17:12.228Z,17.55
2018-05-24T11:19:38.688Z,17.52
2018-05-24T11:22:05.140Z,16.90
2018-05-24T11:24:33.206Z,18.00
2018-05-24T11:26:59.625Z,18.00
2018-05-24T11:29:26.112Z,15.90
2018-05-24T11:31:52.616Z,15.77
2018-05-24T11:34:19.062Z,16.40
2018-05-24T11:36:45.620Z,14.80
2018-05-24T11:39:12.169Z,15.63
2018-05-24T11:41:38.783Z,15.82
2018-05-24T11:44:05.260Z,14.57
2018-05-24T11:46:31.683Z,14.93
2018-05-24T11:48:58.149Z,14.95
2018-05-24T11:51:24.648Z,15.00
2018-05-24T11:53:51.835Z,15.55
2018-05-24T11:56:18.279Z,15.40
2018-05-24T11:58:45.563Z,15.05
2018-05-24T12:01:12.708Z,15.18
2018-05-24T12:03:39.154Z,15.50
2018-05-24T12:06:07.057Z,15.98
2018-05-24T12:08:33.506Z,15.25
2018-05-24T12:11:00.438Z,15.43
2018-05-24T12:13:26.961Z,15.07
2018-05-24T12:15:54.129Z,14.52
2018-05-24T12:18:21.339Z,14.57
2018-05-24T12:20:47.967Z,15.07
2018-05-24T12:23:14.437Z,16.00
2018-05-24T12:25:40.862Z,14.82
2018-05-24T12:28:08.083Z,14.27
2018-05-24T12:30:34.612Z,15.20
2018-05-24T12:33:01.043Z,14.02
2018-05-24T12:35:27.612Z,14.80
2018-05-24T12:37:54.031Z,15.20
2018-05-24T12:40:20.469Z,13.93
2018-05-24T12:42:46.951Z,14.27
2018-05-24T12:45:13.417Z,14.50
2018-05-24T12:47:39.906Z,13.00
2018-05-24T12:50:07.091Z,12.97
2018-05-24T12:52:33.644Z,12.60
2018-05-24T12:55:00.197Z,12.80
2018-05-24T12:57:26.635Z,12.10
2018-05-24T12:59:53.849Z,12.68
2018-05-24T13:02:20.346Z,12.40
2018-05-24T13:04:46.769Z,11.80
2018-05-24T13:07:13.398Z,18.00
2018-05-24T13:09:40.980Z,13.05
2018-05-24T13:12:07.794Z,12.50
2018-05-24T13:14:34.318Z,15.32
2018-05-24T13:17:01.031Z,13.27
2018-05-24T13:19:27.809Z,12.65
2018-05-24T13:21:54.219Z,13.23
2018-05-24T13:24:20.670Z,12.73
2018-05-24T13:26:47.198Z,12.40
2018-05-24T13:29:14.902Z,12.33
2018-05-24T13:31:41.381Z,21.85
2018-05-24T13:34:07.857Z,33.25
2018-05-24T13:36:34.329Z,78.15
2018-05-24T13:39:00.771Z,21.62
2018-05-24T13:41:27.209Z,22.15
2018-05-24T13:43:53.721Z,12.90
2018-05-24T13:46:20.996Z,12.90
2018-05-24T13:48:48.176Z,13.10
2018-05-24T13:51:14.830Z,12.57
2018-05-24T13:53:41.293Z,13.70
2018-05-24T13:56:08.437Z,12.57
2018-05-24T13:58:35.117Z,12.63
2018-05-24T14:01:02.343Z,13.05
2018-05-24T14:03:28.761Z,13.00
2018-05-24T14:05:55.243Z,13.60
2018-05-24T14:08:21.839Z,12.20
2018-05-24T14:10:48.282Z,13.30
2018-05-24T14:13:14.778Z,13.70
2018-05-24T14:15:42.172Z,12.63
2018-05-24T14:18:08.719Z,12.65
2018-05-24T14:20:35.169Z,13.90
2018-05-24T14:23:02.344Z,12.98
2018-05-24T14:25:29.605Z,12.73
2018-05-24T14:27:56.075Z,14.27
2018-05-24T14:30:22.555Z,13.00
2018-05-24T14:32:49.091Z,12.32
2018-05-24T14:35:15.648Z,16.10
2018-05-24T14:37:42.929Z,12.60
2018-05-24T14:40:09.370Z,14.27
2018-05-24T14:42:36.554Z,13.68
2018-05-24T14:45:04.348Z,14.00
2018-05-24T14:47:30.921Z,14.82
2018-05-24T14:49:57.345Z,14.40
2018-05-24T14:52:24.522Z,14.02
2018-05-24T14:54:51.864Z,14.45
2018-05-24T14:57:18.291Z,14.60
2018-05-24T14:59:45.319Z,16.07
2018-05-24T15:02:12.599Z,14.65
2018-05-24T15:04:39.875Z,14.13
2018-05-24T15:07:06.431Z,16.10
2018-05-24T15:09:33.787Z,14.30
2018-05-24T15:12:00.223Z,14.00
2018-05-24T15:14:28.166Z,14.80
2018-05-24T15:16:54.639Z,14.80
2018-05-24T15:19:21.069Z,14.57
2018-05-24T15:21:48.244Z,13.55
2018-05-24T15:24:14.798Z,13.88
2018-05-24T15:26:41.247Z,13.40
2018-05-24T15:29:08.460Z,13.30
2018-05-24T15:31:34.940Z,13.00
2018-05-24T15:34:01.422Z,13.07
2018-05-24T15:36:28.632Z,12.70
2018-05-24T15:38:55.088Z,11.50
2018-05-24T15:41:21.571Z,12.52
2018-05-24T15:43:48.051Z,19.03
2018-05-24T15:46:14.499Z,14.70
2018-05-24T15:48:40.997Z,13.98
2018-05-24T15:51:08.178Z,13.00
2018-05-24T15:53:34.728Z,13.35
2018-05-24T15:56:01.183Z,12.90
2018-05-24T15:58:28.363Z,12.77
2018-05-24T16:00:54.792Z,13.55
2018-05-24T16:03:22.075Z,13.90
2018-05-24T16:05:49.364Z,16.77
2018-05-24T16:08:15.822Z,13.85
2018-05-24T16:10:42.378Z,15.45
2018-05-24T16:13:09.045Z,16.23
2018-05-24T16:15:35.523Z,13.60
2018-05-24T16:18:02.331Z,12.35
2018-05-24T16:20:28.810Z,12.13
2018-05-24T16:22:55.479Z,13.20
2018-05-24T16:25:22.757Z,12.50
2018-05-24T16:27:49.243Z,12.90
2018-05-24T16:30:15.707Z,12.20
2018-05-24T16:32:42.304Z,13.23
2018-05-24T16:35:08.782Z,12.60
2018-05-24T16:37:35.249Z,12.52
2018-05-24T16:40:01.797Z,12.63
2018-05-24T16:42:29.020Z,12.20
2018-05-24T16:44:55.469Z,12.07
2018-05-24T16:47:22.009Z,12.50
2018-05-24T16:49:48.473Z,12.95
2018-05-24T16:52:14.962Z,12.95
2018-05-24T16:54:41.433Z,13.90
2018-05-24T16:57:07.922Z,18.27
2018-05-24T16:59:34.374Z,14.27
2018-05-24T17:02:00.827Z,12.93
2018-05-24T17:04:28.309Z,11.95
2018-05-24T17:06:55.460Z,12.55
2018-05-24T17:09:23.299Z,12.10
2018-05-24T17:11:49.975Z,13.60
2018-05-24T17:14:16.584Z,12.20
2018-05-24T17:16:44.124Z,12.70
2018-05-24T17:19:11.439Z,13.30
2018-05-24T17:21:38.662Z,17.10
2018-05-24T17:24:05.173Z,17.70
2018-05-24T17:26:31.616Z,18.20
2018-05-24T17:28:58.795Z,17.15
2018-05-24T17:31:27.308Z,16.62
2018-05-24T17:33:53.763Z,15.75
2018-05-24T17:36:20.184Z,15.80
2018-05-24T17:38:46.589Z,15.07
2018-05-24T17:41:13.229Z,14.75
2018-05-24T17:43:39.665Z,18.83
2018-05-24T17:46:07.403Z,13.93
2018-05-24T17:48:33.838Z,14.35
2018-05-24T17:51:00.338Z,14.00
2018-05-24T17:53:26.872Z,14.30
2018-05-24T17:55:53.391Z,9.35
2018-05-24T17:58:20.777Z,6.00
2018-05-24T18:00:47.233Z,4.40
2018-05-24T18:03:13.858Z,4.00
2018-05-24T18:05:40.349Z,3.50
2018-05-24T18:08:06.794Z,3.40
2018-05-24T18:10:33.962Z,3.20
2018-05-24T18:13:01.208Z,3.50
2018-05-24T18:15:27.653Z,3.45
2018-05-24T18:17:54.165Z,3.63
2018-05-24T18:20:21.441Z,3.35
2018-05-24T18:22:48.728Z,3.60
2018-05-24T18:25:15.193Z,3.65
2018-05-24T18:27:41.748Z,3.33
2018-05-24T18:30:08.294Z,3.00
2018-05-24T18:32:34.745Z,3.30
2018-05-24T18:35:01.930Z,4.60
2018-05-24T18:37:28.393Z,5.15
2018-05-24T18:39:55.139Z,3.90
2018-05-24T18:42:21.589Z,4.07
2018-05-24T18:44:48.950Z,5.20
2018-05-24T18:47:16.920Z,5.43
2018-05-24T18:49:43.423Z,5.95
2018-05-24T18:52:09.982Z,6.10
2018-05-24T18:54:36.447Z,6.17
2018-05-24T18:57:03.103Z,13.32
2018-05-24T18:59:30.553Z,8.77
2018-05-24T19:01:57.836Z,14.13
2018-05-24T19:04:24.249Z,8.00
2018-05-24T19:06:50.760Z,6.20
2018-05-24T19:09:17.953Z,6.40
2018-05-24T19:11:44.493Z,5.22
2018-05-24T19:14:10.999Z,4.12
2018-05-24T19:16:38.217Z,3.95
2018-05-24T19:19:05.398Z,4.87
2018-05-24T19:21:31.863Z,3.90
2018-05-24T19:23:58.315Z,4.05
2018-05-24T19:26:24.818Z,4.57
2018-05-24T19:28:51.312Z,4.70
2018-05-24T19:31:18.596Z,4.80
2018-05-24T19:33:45.811Z,4.90
2018-05-24T19:36:12.259Z,4.70
2018-05-24T19:38:38.785Z,5.53
2018-05-24T19:41:05.275Z,5.45
2018-05-24T19:43:31.745Z,5.30
2018-05-24T19:45:58.197Z,5.60
2018-05-24T19:48:24.621Z,5.22
2018-05-24T19:50:51.378Z,5.00
2018-05-24T19:53:17.813Z,5.20
2018-05-24T19:55:45.034Z,5.60
2018-05-24T19:58:11.969Z,5.70
2018-05-24T20:00:38.451Z,5.25
2018-05-24T20:03:05.034Z,6.00
2018-05-24T20:05:31.525Z,5.70
2018-05-24T20:07:58.735Z,5.90
2018-05-24T20:10:25.376Z,5.37
2018-05-24T20:12:52.650Z,5.80
2018-05-24T20:15:19.889Z,6.05
2018-05-24T20:17:46.373Z,5.70
2018-05-24T20:20:13.657Z,6.40
2018-05-24T20:22:40.129Z,6.10
2018-05-24T20:25:06.669Z,6.22
2018-05-24T20:27:33.945Z,6.07
2018-05-24T20:30:00.452Z,5.80
2018-05-24T20:32:26.899Z,6.05
2018-05-24T20:34:53.415Z,6.20
2018-05-24T20:37:20.606Z,6.60
2018-05-24T20:39:47.148Z,7.22
2018-05-24T20:42:13.586Z,7.40
2018-05-24T20:44:40.087Z,6.68
2018-05-24T20:47:06.520Z,7.50
2018-05-24T20:49:32.971Z,9.38
2018-05-24T20:52:00.174Z,9.35
2018-05-24T20:54:26.640Z,9.37
2018-05-24T20:56:53.126Z,10.27
2018-05-24T20:59:20.365Z,11.07
2018-05-24T21:01:46.941Z,10.73
2018-05-24T21:04:13.447Z,11.20
2018-05-24T21:06:39.860Z,11.88
2018-05-24T21:09:06.316Z,10.30
2018-05-24T21:11:32.922Z,9.98
2018-05-24T21:13:59.449Z,8.82
2018-05-24T21:16:25.837Z,8.60
2018-05-24T21:18:52.293Z,8.70
2018-05-24T21:21:18.751Z,7.95
2018-05-24T21:23:45.196Z,8.05
2018-05-24T21:26:12.475Z,8.20
2018-05-24T21:28:39.652Z,8.00
2018-05-24T21:31:06.084Z,7.75
2018-05-24T21:33:32.533Z,8.00
2018-05-24T21:35:59.613Z,7.78
2018-05-24T21:38:26.766Z,7.00
2018-05-24T21:40:53.252Z,6.12
2018-05-24T21:43:20.411Z,6.60
2018-05-24T21:45:46.872Z,7.95
2018-05-24T21:48:13.358Z,8.13
2018-05-24T21:50:39.807Z,8.70
2018-05-24T21:53:06.283Z,8.73
2018-05-24T21:55:33.795Z,7.95
2018-05-24T22:00:37.684Z,8.60
2018-05-24T22:03:04.885Z,8.20
2018-05-24T22:05:31.364Z,8.00
2018-05-24T22:07:57.866Z,8.10
2018-05-24T22:10:25.158Z,8.20
2018-05-24T22:12:51.681Z,8.70
2018-05-24T22:15:18.166Z,8.15
2018-05-24T22:17:44.729Z,8.95
2018-05-24T22:20:12.008Z,8.23
2018-05-24T22:22:38.434Z,8.23
2018-05-24T22:25:04.904Z,8.05
2018-05-24T22:27:32.092Z,8.75
2018-05-24T22:29:59.244Z,8.30
2018-05-24T22:32:25.639Z,8.40
2018-05-24T22:34:52.179Z,8.38
2018-05-24T22:37:18.613Z,9.60
2018-05-24T22:39:45.044Z,8.90
2018-05-24T22:42:11.991Z,8.90
2018-05-24T22:44:38.389Z,9.20
2018-05-24T22:47:04.809Z,9.57
2018-05-24T22:49:31.228Z,9.90
2018-05-24T22:51:57.639Z,9.40
2018-05-24T22:54:24.060Z,10.10
2018-05-24T22:56:50.601Z,9.27
2018-05-24T22:59:17.015Z,10.10
2018-05-24T23:01:43.503Z,9.90
2018-05-24T23:04:10.731Z,9.77
2018-05-24T23:06:37.155Z,9.18
2018-05-24T23:09:03.739Z,9.70
2018-05-24T23:12:09.522Z,9.38
2018-05-24T23:14:36.659Z,10.00
2018-05-24T23:17:03.137Z,10.23
2018-05-24T23:19:30.329Z,9.80
2018-05-24T23:21:57.379Z,10.45
2018-05-24T23:24:24.563Z,11.10
2018-05-24T23:26:51.748Z,11.07
2018-05-24T23:29:18.148Z,10.75
2018-05-24T23:31:44.628Z,11.82
2018-05-24T23:34:11.030Z,12.40
2018-05-24T23:36:37.467Z,12.45
2018-05-24T23:39:04.909Z,12.02
2018-05-24T23:41:32.081Z,12.60
2018-05-24T23:43:58.479Z,12.80
2018-05-24T23:46:25.144Z,13.15
2018-05-24T23:48:51.899Z,13.40
2018-05-24T23:51:18.557Z,13.62
2018-05-24T23:53:44.991Z,11.82
2018-05-24T23:56:11.417Z,11.90
2018-05-24T23:58:37.854Z,11.88
